Time;durP1;ratioP1;P1;durP2;ratioP2;P2;SDS_P1;SDS_P2;PMS_P1;PMS_P2;Temp;Humidity;BMP_temperature;BMP_pressure;BME280_temperature;BME280_humidity;BME280_pressure;Samples;Min_cycle;Max_cycle;Signal;HPM_P1;HPM_P2
2024/03/10 00:02:09;;;;;;;22.63;20.37;;;;;;;5.74;82.29;99359.44;5052099;28;20234;-76
2024/03/10 00:04:35;;;;;;;23.63;19.73;;;;;;;5.72;82.19;99351.69;5052025;28;20295;-77
2024/03/10 00:07:02;;;;;;;24.20;20.40;;;;;;;5.72;82.00;99348.25;5051985;28;20205;-77
2024/03/10 00:09:30;;;;;;;25.13;20.97;;;;;;;5.70;82.38;99357.78;5051758;28;20244;-77
2024/03/10 00:11:56;;;;;;;22.83;20.53;;;;;;;5.69;81.85;99348.31;5052174;28;20231;-76
2024/03/10 00:14:23;;;;;;;24.83;20.77;;;;;;;5.64;82.22;99350.97;5050728;28;20267;-76
2024/03/10 00:16:49;;;;;;;25.50;21.20;;;;;;;5.65;82.14;99349.22;5051226;28;20687;-77
2024/03/10 00:19:17;;;;;;;27.20;22.20;;;;;;;5.68;82.19;99349.19;5050788;28;20225;-77
2024/03/10 00:21:43;;;;;;;30.30;23.30;;;;;;;5.68;81.57;99359.56;5031502;28;20268;-76
2024/03/10 00:24:09;;;;;;;30.60;23.60;;;;;;;5.68;81.58;99349.19;5031656;28;20206;-76
2024/03/10 00:26:37;;;;;;;23.03;20.53;;;;;;;5.66;81.05;99362.16;5031828;28;20264;-77
2024/03/10 00:29:03;;;;;;;27.50;20.90;;;;;;;5.65;81.00;99368.22;5032276;28;20230;-77
2024/03/10 00:31:30;;;;;;;25.43;21.07;;;;;;;5.62;81.11;99370.00;5031701;28;20255;-76
2024/03/10 00:33:57;;;;;;;22.87;20.43;;;;;;;5.52;81.14;99372.72;5031935;28;20210;-77
2024/03/10 00:36:23;;;;;;;25.40;20.70;;;;;;;5.51;81.47;99363.28;5031907;28;20248;-77
2024/03/10 00:38:49;;;;;;;24.90;20.73;;;;;;;5.50;81.85;99358.13;5033149;28;20230;-76
2024/03/10 00:41:16;;;;;;;24.40;20.43;;;;;;;5.45;82.41;99345.25;5035725;28;20209;-77
2024/03/10 00:43:43;;;;;;;23.27;20.83;;;;;;;5.44;82.29;99342.69;5035919;28;20205;-76
2024/03/10 00:46:09;;;;;;;26.73;21.93;;;;;;;5.39;82.37;99342.75;5035743;28;20206;-77
2024/03/10 00:48:36;;;;;;;27.90;22.10;;;;;;;5.41;82.79;99343.59;5041879;28;20630;-76
2024/03/10 00:51:02;;;;;;;26.47;21.73;;;;;;;5.37;83.09;99339.31;5035613;28;20221;-77
2024/03/10 00:53:29;;;;;;;27.10;22.47;;;;;;;5.34;83.07;99323.88;5035581;28;20209;-77
2024/03/10 00:55:55;;;;;;;27.43;22.03;;;;;;;5.36;82.18;99327.28;5035385;28;20206;-76
2024/03/10 00:58:22;;;;;;;26.27;21.83;;;;;;;5.33;82.51;99320.44;5035618;28;20216;-77
2024/03/10 01:00:49;;;;;;;25.53;21.10;;;;;;;5.29;83.18;99312.72;5035471;28;20265;-76
2024/03/10 01:03:16;;;;;;;23.30;20.90;;;;;;;5.24;82.07;99317.13;5035635;28;20674;-77
2024/03/10 01:05:43;;;;;;;23.00;19.57;;;;;;;5.21;82.04;99325.75;5035426;28;20217;-77
2024/03/10 01:08:10;;;;;;;23.50;21.00;;;;;;;5.15;82.35;99334.50;5035247;28;20210;-76
2024/03/10 01:10:36;;;;;;;26.43;21.43;;;;;;;5.13;82.17;99331.09;5034636;28;20260;-77
2024/03/10 01:13:03;;;;;;;25.33;21.23;;;;;;;5.11;82.57;99321.63;5035399;28;20256;-77
2024/03/10 01:15:31;;;;;;;27.83;22.13;;;;;;;5.11;83.39;99319.03;5033171;28;20586;-77
2024/03/10 01:17:59;;;;;;;26.10;23.23;;;;;;;5.10;83.37;99313.00;5037121;28;20213;-76
2024/03/10 01:20:26;;;;;;;26.83;22.77;;;;;;;5.07;83.84;99299.25;5035687;28;20227;-77
2024/03/10 01:22:52;;;;;;;29.43;22.83;;;;;;;5.06;83.82;99295.81;5034966;28;20206;-77
2024/03/10 01:25:19;;;;;;;27.63;22.90;;;;;;;5.03;84.09;99288.09;5035195;28;20271;-76
2024/03/10 01:27:45;;;;;;;25.53;22.03;;;;;;;5.05;84.01;99285.50;5035120;28;20213;-77
2024/03/10 01:30:12;;;;;;;30.13;23.73;;;;;;;4.97;84.74;99281.31;5034785;28;20284;-77
2024/03/10 01:32:38;;;;;;;28.60;22.40;;;;;;;4.97;84.64;99263.22;5034738;28;20206;-77
2024/03/10 01:35:07;;;;;;;32.80;23.43;;;;;;;4.96;84.31;99260.66;5034852;28;20209;-77
2024/03/10 01:37:33;;;;;;;28.47;22.90;;;;;;;4.95;83.87;99257.19;5034572;28;20232;-76
2024/03/10 01:40:00;;;;;;;30.60;23.00;;;;;;;4.92;84.41;99257.25;5034274;28;20237;-76
2024/03/10 01:42:26;;;;;;;30.67;23.83;;;;;;;4.91;83.53;99252.94;5034913;28;20214;-77
2024/03/10 01:44:55;;;;;;;25.70;22.30;;;;;;;4.90;83.33;99250.41;5034675;28;20210;-76
2024/03/10 01:47:22;;;;;;;29.57;22.60;;;;;;;4.85;82.83;99263.38;5034802;28;20209;-76
2024/03/10 01:49:48;;;;;;;33.10;22.43;;;;;;;4.77;82.94;99271.22;5040364;28;20288;-77
2024/03/10 01:52:17;;;;;;;26.30;22.57;;;;;;;4.75;83.33;99272.13;5034203;28;20209;-75
2024/03/10 01:54:43;;;;;;;35.90;24.23;;;;;;;4.71;84.59;99260.97;5034340;28;20207;-77
2024/03/10 01:57:10;;;;;;;35.77;24.33;;;;;;;4.75;85.11;99247.13;5033942;28;20217;-76
2024/03/10 01:59:38;;;;;;;36.20;25.77;;;;;;;4.77;85.05;99239.38;5038893;28;20304;-76
2024/03/10 02:02:05;;;;;;;35.27;25.03;;;;;;;4.76;85.54;99220.44;5042835;28;20202;-76
2024/03/10 02:04:32;;;;;;;34.10;24.97;;;;;;;4.76;85.86;99215.25;5043217;28;20202;-77
2024/03/10 02:06:58;;;;;;;37.27;25.40;;;;;;;4.77;84.78;99231.63;5043209;28;20283;-77
2024/03/10 02:09:26;;;;;;;34.97;24.93;;;;;;;4.76;85.05;99228.19;5044952;28;20221;-76
2024/03/10 02:11:53;;;;;;;33.13;24.93;;;;;;;4.75;85.23;99226.47;5047424;28;20252;-76
2024/03/10 02:14:19;;;;;;;36.13;25.73;;;;;;;4.75;85.12;99230.78;5034183;28;20214;-76
2024/03/10 02:16:49;;;;;;;35.90;25.83;;;;;;;4.75;85.87;99220.44;5034034;28;20216;-76
2024/03/10 02:19:16;;;;;;;39.03;26.80;;;;;;;4.75;86.16;99207.53;5041190;28;20229;-76
2024/03/10 02:21:43;;;;;;;42.70;28.43;;;;;;;4.76;86.55;99197.16;5033767;28;20209;-76
2024/03/10 02:24:16;;;;;;;37.77;27.03;;;;;;;4.78;86.45;99191.97;5033707;28;20672;-77
2024/03/10 02:26:46;;;;;;;37.53;27.03;;;;;;;4.80;85.90;99189.34;5033804;28;20236;-76
2024/03/10 02:29:15;;;;;;;47.23;28.53;;;;;;;4.81;85.96;99189.31;5033545;28;20230;-77
2024/03/10 02:48:09;;;;;;;37.93;26.90;;;;;;;4.77;86.19;99193.69;5027422;28;20745;-76
2024/03/10 02:50:35;;;;;;;43.30;29.83;;;;;;;4.77;86.55;99193.69;5034997;28;20284;-77
2024/03/10 02:53:03;;;;;;;43.43;28.90;;;;;;;4.73;86.55;99198.94;5033406;28;20210;-76
2024/03/10 02:55:29;;;;;;;42.57;29.00;;;;;;;4.74;86.57;99196.34;5033068;28;20214;-76
2024/03/10 02:57:57;;;;;;;42.10;29.57;;;;;;;4.74;86.73;99186.00;5033141;28;20264;-76
2024/03/10 03:00:24;;;;;;;43.97;29.37;;;;;;;4.73;86.35;99186.00;5032942;28;20862;-76
2024/03/10 03:02:50;;;;;;;43.10;28.87;;;;;;;4.71;86.63;99174.84;5032906;28;20213;-76
2024/03/10 03:05:17;;;;;;;42.30;28.27;;;;;;;4.73;86.12;99178.25;5033037;28;20675;-76
2024/03/10 03:07:44;;;;;;;47.40;29.23;;;;;;;4.75;86.03;99176.50;5033256;28;20206;-77
2024/03/10 03:10:11;;;;;;;45.07;28.93;;;;;;;4.74;86.03;99192.91;5032823;28;20231;-76
2024/03/10 03:12:37;;;;;;;40.63;27.20;;;;;;;4.72;85.79;99197.25;5032433;28;20685;-77
2024/03/10 03:15:05;;;;;;;40.60;29.10;;;;;;;4.70;85.62;99206.75;5032346;28;20759;-77
2024/03/10 03:17:32;;;;;;;43.27;29.27;;;;;;;4.69;85.42;99211.03;5030707;28;20618;-76
2024/03/10 03:19:59;;;;;;;35.97;26.33;;;;;;;4.67;85.79;99211.94;5030654;28;20283;-76
2024/03/10 03:22:25;;;;;;;43.43;28.30;;;;;;;4.65;86.20;99196.47;5031433;28;20205;-76
2024/03/10 03:24:52;;;;;;;47.47;31.27;;;;;;;4.62;86.43;99195.66;5031070;28;20711;-76
2024/03/10 03:27:18;;;;;;;47.90;29.43;;;;;;;4.63;86.35;99187.88;5032524;28;20248;-77
2024/03/10 03:29:44;;;;;;;43.10;29.27;;;;;;;4.61;86.96;99183.63;5032165;28;20225;-76
2024/03/10 03:32:12;;;;;;;44.87;29.70;;;;;;;4.62;86.58;99175.84;5032114;28;20254;-76
2024/03/10 03:34:38;;;;;;;44.30;29.80;;;;;;;4.61;86.63;99181.88;5032665;28;20212;-76
2024/03/10 03:37:06;;;;;;;50.30;30.87;;;;;;;4.57;87.39;99173.31;5032571;28;20262;-77
2024/03/10 03:39:35;;;;;;;48.27;30.80;;;;;;;4.60;87.70;99166.38;5031432;28;20229;-77
2024/03/10 03:42:01;;;;;;;45.07;30.07;;;;;;;4.60;87.27;99158.63;5031860;28;20213;-76
2024/03/10 03:44:27;;;;;;;42.77;29.03;;;;;;;4.60;87.31;99153.47;5030890;28;20260;-77
2024/03/10 03:46:54;;;;;;;51.33;31.53;;;;;;;4.57;87.22;99152.63;5031007;28;20265;-76
2024/03/10 03:49:21;;;;;;;43.77;28.83;;;;;;;4.57;87.26;99147.47;5032430;28;20229;-76
2024/03/10 03:51:48;;;;;;;45.20;29.90;;;;;;;4.57;86.53;99151.78;5032265;28;20240;-76
2024/03/10 03:54:14;;;;;;;47.47;31.00;;;;;;;4.56;87.14;99150.09;5032380;28;20262;-76
2024/03/10 03:56:41;;;;;;;45.53;29.67;;;;;;;4.55;87.08;99143.22;5032102;28;20213;-76
2024/03/10 03:59:07;;;;;;;51.93;31.47;;;;;;;4.53;86.88;99147.56;5031746;28;20236;-77
2024/03/10 04:01:34;;;;;;;40.97;28.70;;;;;;;4.51;87.40;99141.56;5031986;28;20747;-76
2024/03/10 04:04:01;;;;;;;46.93;30.73;;;;;;;4.48;87.25;99137.28;5032161;28;20595;-76
2024/03/10 04:06:29;;;;;;;48.53;31.57;;;;;;;4.50;87.56;99129.50;5032068;28;20223;-76
2024/03/10 04:08:55;;;;;;;44.03;31.40;;;;;;;4.48;87.92;99123.50;5031520;28;20328;-76
2024/03/10 04:11:22;;;;;;;50.40;32.23;;;;;;;4.44;87.91;99125.31;5031925;28;20213;-77
2024/03/10 04:13:48;;;;;;;49.67;29.33;;;;;;;4.47;87.50;99116.66;5031150;28;20590;-76
2024/03/10 04:16:14;;;;;;;47.77;30.03;;;;;;;4.46;87.37;99115.81;5031910;28;20238;-76
2024/03/10 04:18:41;;;;;;;47.57;31.00;;;;;;;4.46;87.63;99105.47;5031805;28;20212;-76
2024/03/10 04:21:07;;;;;;;48.70;31.30;;;;;;;4.45;87.33;99102.91;5031310;28;20231;-76
2024/03/10 04:23:36;;;;;;;46.97;31.50;;;;;;;4.43;87.77;99097.75;5031346;28;20268;-77
2024/03/10 04:26:02;;;;;;;48.13;31.30;;;;;;;4.38;87.97;99090.06;5030327;28;20672;-76
2024/03/10 04:28:29;;;;;;;47.57;30.70;;;;;;;4.41;87.72;99090.91;5030979;28;20693;-76
2024/03/10 04:30:55;;;;;;;52.83;32.07;;;;;;;4.39;88.06;99098.69;5031203;28;20680;-76
2024/03/10 04:33:21;;;;;;;50.50;32.00;;;;;;;4.43;87.62;99091.72;5031785;28;20209;-77
2024/03/10 04:35:48;;;;;;;50.43;32.13;;;;;;;4.41;87.76;99107.25;5030828;28;20855;-76
2024/03/10 04:38:14;;;;;;;49.83;33.03;;;;;;;4.40;87.32;99102.09;5031400;28;20240;-77
2024/03/10 04:40:44;;;;;;;49.07;31.63;;;;;;;4.38;87.06;99103.00;5031261;28;20237;-77
2024/03/10 04:43:10;;;;;;;50.07;32.07;;;;;;;4.35;87.09;99103.03;5031357;28;20255;-77
2024/03/10 04:45:37;;;;;;;49.20;31.97;;;;;;;4.33;87.32;99101.34;5031706;28;20212;-76
2024/03/10 04:48:03;;;;;;;53.70;32.73;;;;;;;4.32;87.28;99099.63;5031843;28;20803;-76
2024/03/10 04:50:30;;;;;;;54.57;32.90;;;;;;;4.28;87.71;99085.94;5029804;28;20238;-76
2024/03/10 04:52:57;;;;;;;50.70;32.40;;;;;;;4.27;87.58;99086.78;5030858;28;20205;-76
2024/03/10 04:55:23;;;;;;;53.77;32.07;;;;;;;4.23;87.93;99086.88;5031560;28;20632;-77
2024/03/10 04:57:51;;;;;;;54.80;33.97;;;;;;;4.18;88.34;99080.06;5032442;28;20292;-76
2024/03/10 05:00:18;;;;;;;50.47;32.43;;;;;;;4.22;88.13;99061.91;5032015;28;20229;-76
2024/03/10 05:02:46;;;;;;;51.43;33.40;;;;;;;4.22;88.11;99059.31;5032803;28;20260;-77
2024/03/10 05:05:12;;;;;;;58.63;34.13;;;;;;;4.22;88.30;99061.91;5032863;28;20747;-76
2024/03/10 05:07:39;;;;;;;62.13;33.93;;;;;;;4.21;88.35;99063.66;5032743;28;20205;-75
2024/03/10 05:10:06;;;;;;;54.33;33.50;;;;;;;4.19;88.46;99057.66;5046226;28;20241;-77
2024/03/10 05:12:33;;;;;;;55.37;34.07;;;;;;;4.15;88.41;99059.44;5035462;28;20206;-76
2024/03/10 05:15:01;;;;;;;58.83;34.80;;;;;;;4.15;88.61;99053.41;5031317;28;20474;-76
2024/03/10 05:17:29;;;;;;;59.00;35.50;;;;;;;4.15;89.04;99043.09;5031015;28;20591;-76
2024/03/10 05:19:56;;;;;;;58.30;35.50;;;;;;;4.13;89.05;99045.69;5030899;28;20230;-76
2024/03/10 05:22:22;;;;;;;62.73;35.47;;;;;;;4.12;88.84;99044.00;5031303;28;20256;-75
2024/03/10 05:24:48;;;;;;;61.53;36.70;;;;;;;4.13;88.60;99048.28;5032663;28;20206;-76
2024/03/10 05:27:15;;;;;;;66.43;36.40;;;;;;;4.13;88.53;99045.69;5034739;28;20206;-76
2024/03/10 05:29:42;;;;;;;59.93;35.13;;;;;;;4.11;88.50;99052.59;5034785;28;20224;-76
2024/03/10 05:32:09;;;;;;;53.43;33.90;;;;;;;4.10;88.65;99050.91;5034860;28;20209;-76
2024/03/10 05:34:36;;;;;;;59.63;35.87;;;;;;;4.08;88.50;99052.63;5034851;28;20256;-76
2024/03/10 05:37:04;;;;;;;63.80;35.67;;;;;;;4.08;88.84;99046.63;5034339;28;20235;-76
2024/03/10 05:39:32;;;;;;;57.03;35.43;;;;;;;4.09;88.71;99048.34;5038444;28;20229;-76
2024/03/10 05:41:58;;;;;;;62.00;35.77;;;;;;;4.05;88.83;99047.53;5034652;28;20263;-76
2024/03/10 05:44:24;;;;;;;59.40;36.43;;;;;;;4.06;89.09;99048.38;5034717;28;20254;-75
2024/03/10 05:46:51;;;;;;;56.73;34.80;;;;;;;4.03;89.16;99044.13;5034404;28;20260;-76
2024/03/10 05:49:18;;;;;;;59.10;34.77;;;;;;;4.02;89.53;99029.50;5033906;28;20228;-76
2024/03/10 05:51:47;;;;;;;64.80;37.53;;;;;;;4.07;89.48;99032.03;5032795;28;20288;-75
2024/03/10 05:54:14;;;;;;;62.43;36.43;;;;;;;4.08;89.24;99013.91;5034333;28;20587;-76
2024/03/10 05:56:41;;;;;;;60.43;36.23;;;;;;;4.10;89.83;99021.63;5034179;28;20205;-76
2024/03/10 05:59:07;;;;;;;59.77;35.67;;;;;;;4.07;90.27;99014.81;5034156;28;20751;-76
2024/03/10 06:01:33;;;;;;;62.97;37.67;;;;;;;4.10;89.52;99008.72;5034340;28;20224;-76
2024/03/10 06:04:00;;;;;;;62.80;36.83;;;;;;;4.08;89.76;99006.16;5033607;28;20209;-76
2024/03/10 06:06:28;;;;;;;67.37;38.13;;;;;;;4.04;90.71;99007.09;5034123;28;20214;-76
2024/03/10 06:08:55;;;;;;;62.37;36.33;;;;;;;4.07;90.87;98990.72;5038114;28;20248;-76
2024/03/10 06:11:21;;;;;;;67.50;39.70;;;;;;;4.09;90.96;98986.38;5042793;28;20263;-76
2024/03/10 06:13:48;;;;;;;57.47;35.53;;;;;;;4.13;90.17;98996.63;5035948;28;20267;-75
2024/03/10 06:16:15;;;;;;;66.40;37.17;;;;;;;4.07;90.88;99003.63;5054100;28;20212;-76
2024/03/10 06:27:07;;;;;;;67.47;39.17;;;;;;;4.20;91.21;98993.94;5017833;28;20207;-76
2024/03/10 06:29:33;;;;;;;65.83;37.13;;;;;;;4.22;91.44;98993.03;5053656;28;20257;-77
2024/03/10 06:32:00;;;;;;;65.50;39.67;;;;;;;4.23;90.66;98989.56;5053858;28;20294;-76
2024/03/10 06:34:26;;;;;;;62.50;37.07;;;;;;;4.25;90.89;98981.81;5053636;28;20258;-76
2024/03/10 06:36:54;;;;;;;67.53;37.80;;;;;;;4.24;91.07;98980.09;5053047;28;20692;-77
2024/03/10 06:39:21;;;;;;;61.23;36.43;;;;;;;4.24;90.92;98975.81;5048296;28;20265;-76
2024/03/10 06:41:47;;;;;;;65.50;37.20;;;;;;;4.25;91.07;98977.50;5033370;28;20276;-76
2024/03/10 06:44:14;;;;;;;59.33;36.20;;;;;;;4.25;91.44;98974.06;5033794;28;20216;-77
2024/03/10 06:46:42;;;;;;;65.40;37.30;;;;;;;4.27;91.88;98964.56;5033715;28;20242;-76
2024/03/10 06:49:09;;;;;;;63.00;36.80;;;;;;;4.29;91.75;98962.81;5033465;28;20226;-77
2024/03/10 06:51:35;;;;;;;60.67;36.33;;;;;;;4.30;91.72;98961.91;5033647;28;20568;-77
2024/03/10 06:54:03;;;;;;;62.93;36.67;;;;;;;4.32;92.09;98955.84;5033415;28;20220;-77
2024/03/10 06:56:30;;;;;;;64.00;37.67;;;;;;;4.34;92.34;98954.09;5033239;28;20878;-77
2024/03/10 06:58:56;;;;;;;59.47;37.33;;;;;;;4.30;92.33;98952.44;5032883;28;20232;-77
2024/03/10 07:01:22;;;;;;;63.60;38.30;;;;;;;4.35;92.04;98945.44;5033269;28;20304;-77
2024/03/10 07:03:49;;;;;;;61.93;38.83;;;;;;;4.37;92.20;98941.13;5031378;28;20683;-77
2024/03/10 07:06:16;;;;;;;66.00;38.33;;;;;;;4.39;91.81;98941.09;5031294;28;20212;-77
2024/03/10 07:08:42;;;;;;;64.53;38.37;;;;;;;4.42;91.75;98937.59;5036736;28;20209;-77
2024/03/10 07:11:10;;;;;;;64.97;38.00;;;;;;;4.41;92.13;98941.91;5033219;28;20238;-76
2024/03/10 07:13:37;;;;;;;63.13;38.27;;;;;;;4.42;92.58;98929.84;5033122;28;20263;-76
2024/03/10 07:16:04;;;;;;;66.30;37.97;;;;;;;4.46;92.58;98929.78;5033003;28;20210;-77
2024/03/10 07:18:31;;;;;;;68.30;37.50;;;;;;;4.49;92.74;98932.28;5033836;28;20214;-76
2024/03/10 07:20:57;;;;;;;65.03;38.87;;;;;;;4.51;92.67;98937.44;5051949;28;20282;-76
2024/03/10 07:23:23;;;;;;;62.13;37.00;;;;;;;4.49;92.74;98937.44;5052536;28;20217;-76
2024/03/10 07:25:50;;;;;;;61.00;38.60;;;;;;;4.53;92.77;98939.09;5052489;28;20564;-76
2024/03/10 07:28:18;;;;;;;63.40;38.93;;;;;;;4.54;92.48;98939.97;5052602;28;20201;-77
2024/03/10 07:30:44;;;;;;;63.37;38.27;;;;;;;4.59;92.33;98943.31;5052233;28;20278;-77
2024/03/10 07:33:11;;;;;;;60.87;37.37;;;;;;;4.59;92.99;98945.88;5052388;28;20286;-76
2024/03/10 07:35:37;;;;;;;61.10;37.03;;;;;;;4.66;92.73;98951.78;5052459;28;20287;-77
2024/03/10 07:38:04;;;;;;;60.27;38.07;;;;;;;4.68;92.41;98956.06;5052172;28;20212;-77
2024/03/10 07:40:30;;;;;;;61.57;37.50;;;;;;;4.69;93.07;98949.16;5037811;28;20222;-76
2024/03/10 07:42:56;;;;;;;59.67;36.47;;;;;;;4.75;92.56;98954.19;5032382;28;20356;-77
2024/03/10 07:45:24;;;;;;;65.37;38.70;;;;;;;4.80;92.33;98965.31;5032474;28;20256;-77
2024/03/10 07:47:51;;;;;;;63.10;38.53;;;;;;;4.82;92.51;98963.56;5031534;28;20619;-77
2024/03/10 07:50:18;;;;;;;61.43;38.60;;;;;;;4.91;92.00;98965.09;5032174;28;20228;-76
2024/03/10 07:52:46;;;;;;;69.57;39.70;;;;;;;4.91;92.72;98970.25;5032192;28;20677;-77
2024/03/10 07:55:12;;;;;;;64.57;39.23;;;;;;;4.95;92.59;98965.00;5032464;28;20212;-76
2024/03/10 07:57:39;;;;;;;69.70;40.40;;;;;;;5.00;92.65;98956.31;5032260;28;20231;-77
2024/03/10 08:00:11;;;;;;;67.00;39.90;;;;;;;5.03;93.16;98954.50;5031954;28;20226;-77
2024/03/10 08:02:39;;;;;;;64.03;39.13;;;;;;;5.06;92.71;98951.88;5032209;28;20312;-77
2024/03/10 08:05:10;;;;;;;62.93;39.33;;;;;;;5.07;93.04;98960.47;5032252;28;20292;-77
2024/03/10 08:07:38;;;;;;;64.40;38.53;;;;;;;5.13;93.11;98966.38;5031891;28;20206;-77
2024/03/10 08:10:05;;;;;;;66.03;40.27;;;;;;;5.16;93.67;98960.28;5037363;28;20233;-77
2024/03/10 08:12:32;;;;;;;65.10;40.07;;;;;;;5.21;93.69;98953.25;5032337;28;20210;-77
2024/03/10 08:14:58;;;;;;;64.97;39.93;;;;;;;5.25;93.39;98954.06;5032152;28;20252;-76
2024/03/10 08:17:24;;;;;;;67.97;41.77;;;;;;;5.27;94.85;98953.16;5031826;28;20202;-77
2024/03/10 08:19:52;;;;;;;69.60;41.70;;;;;;;5.34;95.18;98948.69;5031492;28;20713;-77
2024/03/10 08:22:18;;;;;;;70.10;42.67;;;;;;;5.37;95.12;98946.91;5031536;28;20229;-77
2024/03/10 08:24:45;;;;;;;65.77;42.10;;;;;;;5.49;94.36;98943.19;5031935;28;20214;-77
2024/03/10 08:27:12;;;;;;;65.13;40.50;;;;;;;5.54;93.84;98964.63;5037796;28;20205;-76
2024/03/10 08:29:38;;;;;;;67.33;41.57;;;;;;;5.58;93.56;98965.41;5039900;28;20746;-78
2024/03/10 08:32:06;;;;;;;65.20;40.93;;;;;;;5.67;93.80;98964.34;5040160;28;20547;-77
2024/03/10 08:34:32;;;;;;;65.23;40.90;;;;;;;5.56;94.03;98973.19;5041987;28;20202;-77
2024/03/10 08:37:00;;;;;;;66.07;40.87;;;;;;;5.69;93.60;98962.56;5040770;28;20616;-77
2024/03/10 08:39:28;;;;;;;62.47;40.67;;;;;;;5.76;93.06;98977.09;5042543;28;20765;-77
2024/03/10 08:41:55;;;;;;;60.87;40.27;;;;;;;5.81;92.97;98979.56;5045503;28;20221;-77
2024/03/10 08:44:22;;;;;;;62.27;39.43;;;;;;;5.83;92.37;98993.31;5046927;28;20280;-78
2024/03/10 08:46:50;;;;;;;67.30;40.03;;;;;;;5.85;91.55;99000.19;5051544;28;20205;-77
2024/03/10 08:49:17;;;;;;;62.67;39.97;;;;;;;5.85;92.20;99013.13;5051427;28;20285;-78
2024/03/10 08:51:43;;;;;;;61.53;41.03;;;;;;;5.94;92.25;98999.94;5052421;28;20296;-78
2024/03/10 08:54:11;;;;;;;61.10;39.03;;;;;;;5.98;92.00;99000.75;5052115;28;20205;-78
2024/03/10 08:56:39;;;;;;;63.33;39.47;;;;;;;5.98;91.40;99005.94;5052202;28;20205;-78
2024/03/10 08:59:09;;;;;;;63.17;38.60;;;;;;;5.96;91.47;99012.91;5052299;28;20315;-78
2024/03/10 09:01:35;;;;;;;64.43;41.43;;;;;;;5.93;92.33;99003.44;5056113;28;20229;-78
2024/03/10 09:04:02;;;;;;;69.07;44.47;;;;;;;6.02;92.98;98998.97;5056930;28;20205;-78
2024/03/10 09:06:29;;;;;;;67.80;43.80;;;;;;;6.09;92.39;99000.53;5056856;28;20255;-78
2024/03/10 09:08:55;;;;;;;66.17;43.70;;;;;;;6.15;91.43;99016.78;5055108;28;20260;-78
2024/03/10 09:11:24;;;;;;;68.73;43.80;;;;;;;6.22;91.23;99024.38;5047422;28;20650;-78
2024/03/10 09:13:50;;;;;;;70.57;43.63;;;;;;;6.25;91.56;99019.16;5046424;28;20201;-77
2024/03/10 09:16:17;;;;;;;69.00;43.47;;;;;;;6.34;92.25;99027.56;5045784;28;20205;-79
2024/03/10 09:18:44;;;;;;;67.80;42.73;;;;;;;6.41;90.85;99033.41;5044945;28;20209;-77
2024/03/10 09:21:10;;;;;;;69.47;43.60;;;;;;;6.48;91.41;99042.75;5046392;28;20218;-78
2024/03/10 09:23:36;;;;;;;60.80;40.53;;;;;;;6.53;91.18;99040.88;5047689;28;20206;-78
2024/03/10 09:26:03;;;;;;;62.90;41.47;;;;;;;6.59;90.11;99046.81;5055376;28;20916;-78
2024/03/10 09:28:31;;;;;;;61.33;40.97;;;;;;;6.63;89.31;99058.81;5054963;28;20205;-78
2024/03/10 09:30:57;;;;;;;61.33;40.33;;;;;;;6.66;89.75;99050.94;5054797;28;20213;-78
2024/03/10 09:33:23;;;;;;;62.73;39.93;;;;;;;6.70;89.85;99053.44;5054801;28;20213;-77
2024/03/10 09:35:54;;;;;;;60.43;39.57;;;;;;;6.73;89.78;99058.53;5055032;28;20252;-78
2024/03/10 09:38:20;;;;;;;59.07;38.70;;;;;;;6.69;89.53;99041.34;5054619;28;20209;-78
2024/03/10 09:40:48;;;;;;;59.37;39.40;;;;;;;6.70;90.84;99037.88;5039479;28;20222;-77
2024/03/10 09:43:15;;;;;;;62.67;37.73;;;;;;;6.72;90.05;99030.06;5034434;28;20265;-77
2024/03/10 09:45:47;;;;;;;54.90;37.63;;;;;;;6.76;90.01;99031.69;5035135;28;20230;-77
2024/03/10 09:48:14;;;;;;;31.65;24.85;;;;;;;6.84;90.29;99021.09;4340069;28;10021641;-77
2024/03/10 09:50:46;;;;;;;55.20;37.70;;;;;;;6.87;89.96;99011.50;5031466;28;20233;-77
2024/03/10 09:53:13;;;;;;;55.33;36.87;;;;;;;6.93;89.01;99013.06;5032856;28;20211;-80
2024/03/10 09:55:40;;;;;;;55.40;38.87;;;;;;;6.96;90.91;99019.03;5041067;28;20268;-78
2024/03/10 09:58:12;;;;;;;51.53;38.00;;;;;;;7.04;89.92;99012.78;5054256;28;20216;-79
2024/03/10 10:00:44;;;;;;;60.67;40.27;;;;;;;7.13;90.03;99004.72;5054787;28;20229;-79
2024/03/10 10:03:13;;;;;;;57.87;39.77;;;;;;;7.22;89.06;99011.44;5054052;28;20236;-80
2024/03/10 10:05:44;;;;;;;57.00;38.87;;;;;;;7.15;89.71;99011.59;5053731;28;20601;-78
2024/03/10 10:08:12;;;;;;;55.47;38.90;;;;;;;7.22;89.94;98998.44;5054444;28;20275;-78
2024/03/10 10:10:41;;;;;;;52.23;38.33;;;;;;;7.32;90.00;98992.94;5038944;28;20277;-79
2024/03/10 10:13:08;;;;;;;53.40;36.77;;;;;;;7.39;89.92;99001.38;5033880;28;20704;-79
2024/03/10 10:15:35;;;;;;;53.70;36.80;;;;;;;7.50;88.92;99014.91;5033599;28;20207;-79
2024/03/10 10:18:03;;;;;;;53.43;36.43;;;;;;;7.60;88.32;99023.28;5033532;28;20211;-79
2024/03/10 10:20:32;;;;;;;47.87;35.23;;;;;;;7.60;88.63;99025.03;5033995;28;20736;-80
2024/03/10 10:23:00;;;;;;;59.67;34.97;;;;;;;7.63;88.06;99024.94;5033510;28;20234;-79
2024/03/10 10:25:28;;;;;;;45.63;34.40;;;;;;;7.69;87.02;99042.94;5033531;28;20210;-78
2024/03/10 10:27:55;;;;;;;48.87;34.47;;;;;;;7.63;87.60;99050.91;5033828;28;20218;-79
2024/03/10 10:30:23;;;;;;;49.17;34.53;;;;;;;7.69;87.43;99053.31;5033080;28;20268;-78
2024/03/10 10:32:50;;;;;;;50.70;35.23;;;;;;;7.69;88.46;99045.53;5034054;28;20222;-79
2024/03/10 10:35:17;;;;;;;47.43;35.27;;;;;;;7.83;87.44;99045.97;5031022;28;20210;-79
2024/03/10 10:37:46;;;;;;;45.20;35.07;;;;;;;7.92;87.40;99071.66;5030830;28;20284;-78
2024/03/10 10:40:14;;;;;;;48.17;35.10;;;;;;;8.05;87.86;99071.31;5037704;28;20645;-78
2024/03/10 10:42:40;;;;;;;49.93;36.20;;;;;;;8.15;86.55;99091.75;5030513;28;20226;-78
2024/03/10 10:45:09;;;;;;;46.30;34.77;;;;;;;8.26;85.90;99111.38;5030486;28;20263;-77
2024/03/10 10:47:36;;;;;;;42.07;33.37;;;;;;;8.32;86.39;99114.66;5030380;28;20241;-78
2024/03/10 10:50:10;;;;;;;48.70;34.97;;;;;;;8.44;86.66;99099.56;5045905;28;20229;-77
2024/03/10 10:52:39;;;;;;;47.50;33.00;;;;;;;8.57;85.45;99116.50;5050295;28;20313;-78
2024/03/10 10:55:08;;;;;;;43.13;32.87;;;;;;;8.61;84.26;99157.13;5050374;28;20292;-78
2024/03/10 10:57:41;;;;;;;40.83;31.90;;;;;;;8.67;84.89;99172.53;5050630;28;20902;-78
2024/03/10 11:00:22;;;;;;;37.93;31.97;;;;;;;8.69;84.72;99169.88;5050271;28;20728;-78
2024/03/10 11:02:49;;;;;;;39.50;31.57;;;;;;;8.70;83.98;99179.38;5050284;28;20268;-79
2024/03/10 11:05:18;;;;;;;33.00;29.40;;;;;;;8.72;83.03;99207.06;5050204;28;20260;-77
2024/03/10 11:07:45;;;;;;;35.00;30.37;;;;;;;8.64;84.03;99193.44;5049944;28;20239;-78
2024/03/10 11:10:45;;;;;;;32.93;29.03;;;;;;;8.65;82.89;99195.13;5040601;28;20229;-77
2024/03/10 11:13:13;;;;;;;36.27;29.27;;;;;;;8.70;83.29;99188.03;5030087;28;20209;-78
2024/03/10 11:15:40;;;;;;;34.37;29.60;;;;;;;8.58;83.74;99175.41;5029952;28;20546;-78
2024/03/10 11:18:26;;;;;;;41.17;31.37;;;;;;;8.68;83.48;99160.34;5030035;28;20202;-78
2024/03/10 11:20:55;;;;;;;36.27;30.30;;;;;;;8.73;83.52;99176.69;5030072;28;20266;-76
2024/03/10 11:23:26;;;;;;;34.00;30.33;;;;;;;8.81;82.85;99160.84;5029530;28;20822;-78
2024/03/10 11:25:54;;;;;;;38.77;30.13;;;;;;;8.84;82.91;99145.09;5029220;28;20584;-77
2024/03/10 11:28:25;;;;;;;40.47;30.90;;;;;;;8.90;83.67;99129.28;5029813;28;20260;-78
2024/03/10 11:30:52;;;;;;;33.30;29.77;;;;;;;9.03;83.46;99114.13;5029236;28;20234;-78
2024/03/10 11:33:23;;;;;;;34.03;28.97;;;;;;;9.13;82.73;99115.50;5029402;28;20220;-78
2024/03/10 11:35:50;;;;;;;37.07;31.23;;;;;;;9.21;83.46;99110.03;5029394;28;20210;-76
2024/03/10 11:38:18;;;;;;;39.27;30.90;;;;;;;9.33;83.05;99112.19;5030792;28;20241;-76
2024/03/10 11:40:45;;;;;;;36.03;30.10;;;;;;;9.57;82.57;99110.47;5035732;28;20317;-77
2024/03/10 11:43:13;;;;;;;33.87;29.83;;;;;;;9.88;81.99;99122.38;5029301;28;20615;-77
2024/03/10 11:45:41;;;;;;;36.10;30.67;;;;;;;10.30;82.33;99125.13;5029214;28;20204;-78
2024/03/10 11:48:08;;;;;;;35.30;30.47;;;;;;;10.70;79.78;99160.09;5029359;28;20235;-78
2024/03/10 11:50:34;;;;;;;33.23;29.33;;;;;;;11.17;76.89;99219.13;5049346;28;20316;-78